createdAt,value
2023-01-12T00:00:58.953Z,27.82
2023-01-12T00:03:29.173Z,37.43
2023-01-12T00:06:02.890Z,32.75
2023-01-12T00:08:34.500Z,25.17
2023-01-12T00:11:05.075Z,26.33
2023-01-12T00:13:35.345Z,27.60
2023-01-12T00:16:26.015Z,21.97
2023-01-12T00:18:54.880Z,25.52
2023-01-12T00:21:25.316Z,30.63
2023-01-12T00:23:54.828Z,28.38
2023-01-12T00:26:24.265Z,24.32
2023-01-12T00:28:53.751Z,25.05
2023-01-12T00:31:23.284Z,27.32
2023-01-12T00:33:52.777Z,24.75
2023-01-12T00:36:22.830Z,25.20
2023-01-12T00:38:53.466Z,28.85
2023-01-12T00:41:41.138Z,33.35
2023-01-12T00:44:28.672Z,24.75
2023-01-12T00:46:58.362Z,32.13
2023-01-12T00:49:27.791Z,24.98
2023-01-12T00:51:57.241Z,31.60
2023-01-12T00:56:55.803Z,20.62
2023-01-12T00:59:25.235Z,26.87
2023-01-12T01:01:54.828Z,28.62
2023-01-12T01:04:24.769Z,25.27
2023-01-12T01:06:54.389Z,21.42
2023-01-12T01:09:24.965Z,31.93
2023-01-12T01:11:54.391Z,25.48
2023-01-12T01:14:26.875Z,33.78
2023-01-12T01:16:56.297Z,25.15
2023-01-12T01:19:25.802Z,24.87
2023-01-12T01:21:55.454Z,22.85
2023-01-12T01:24:24.966Z,32.40
2023-01-12T01:26:54.460Z,25.62
2023-01-12T01:29:24.874Z,30.30
2023-01-12T01:31:56.350Z,26.48
2023-01-12T01:34:25.889Z,27.65
2023-01-12T01:36:55.486Z,28.40
2023-01-12T01:39:24.947Z,20.45
2023-01-12T01:41:55.453Z,18.00
2023-01-12T01:44:34.620Z,25.20
2023-01-12T01:47:09.908Z,22.77
2023-01-12T01:49:54.177Z,22.20
2023-01-12T01:52:26.752Z,29.65
2023-01-12T01:55:05.823Z,20.40
2023-01-12T01:57:44.345Z,30.30
2023-01-12T02:00:16.433Z,31.95
2023-01-12T02:02:48.887Z,21.60
2023-01-12T02:05:21.430Z,29.18
2023-01-12T02:10:22.741Z,24.57
2023-01-12T02:13:10.433Z,25.00
2023-01-12T02:16:08.981Z,22.80
2023-01-12T02:18:56.523Z,21.77
2023-01-12T02:21:38.532Z,23.00
2023-01-12T02:24:33.498Z,14.20
2023-01-12T02:27:14.650Z,18.70
2023-01-12T02:29:49.862Z,19.70
2023-01-12T02:32:38.992Z,17.10
2023-01-12T02:35:17.507Z,18.23
2023-01-12T02:38:05.019Z,15.13
2023-01-12T02:40:57.108Z,18.85
2023-01-12T02:43:29.856Z,20.67
2023-01-12T02:46:05.232Z,28.67
2023-01-12T02:49:02.459Z,21.97
2023-01-12T02:51:56.085Z,33.00
2023-01-12T02:54:29.232Z,29.12
2023-01-12T02:57:02.245Z,20.62
2023-01-12T03:02:13.893Z,27.62
2023-01-12T03:04:45.327Z,25.32
2023-01-12T03:07:29.931Z,20.77
2023-01-12T03:10:20.838Z,24.57
2023-01-12T03:12:51.607Z,23.18
2023-01-12T03:15:23.597Z,16.02
2023-01-12T03:18:14.116Z,23.37
2023-01-12T03:20:47.280Z,20.27
2023-01-12T03:23:19.778Z,22.87
2023-01-12T03:25:52.030Z,24.00
2023-01-12T03:28:24.768Z,26.85
2023-01-12T03:30:57.888Z,24.47
2023-01-12T03:33:28.471Z,16.30
2023-01-12T03:36:19.172Z,18.73
2023-01-12T03:39:03.826Z,16.00
2023-01-12T03:41:36.382Z,32.65
2023-01-12T03:44:08.929Z,24.55
2023-01-12T03:46:44.008Z,23.27
2023-01-12T03:49:22.309Z,19.77
2023-01-12T03:54:22.964Z,22.35
2023-01-12T03:56:54.719Z,18.07
2023-01-12T03:59:25.660Z,18.77
2023-01-12T04:01:55.313Z,20.50
2023-01-12T04:04:25.132Z,19.65
2023-01-12T04:06:54.558Z,21.10
2023-01-12T04:09:25.888Z,25.05
2023-01-12T04:12:10.598Z,19.32
2023-01-12T04:14:42.868Z,22.98
2023-01-12T04:17:14.816Z,26.30
2023-01-12T04:19:45.006Z,23.57
2023-01-12T04:22:36.695Z,31.62
2023-01-12T04:25:09.535Z,23.05
2023-01-12T04:27:40.934Z,20.45
2023-01-12T04:30:12.409Z,31.43
2023-01-12T04:32:44.046Z,29.48
2023-01-12T04:35:14.649Z,18.67
2023-01-12T04:37:45.150Z,20.43
2023-01-12T04:40:16.501Z,17.45
2023-01-12T04:43:08.586Z,20.40
2023-01-12T04:45:42.102Z,15.80
2023-01-12T04:48:14.717Z,24.55
2023-01-12T04:50:44.996Z,23.07
2023-01-12T04:53:14.724Z,24.57
2023-01-12T04:55:45.304Z,23.20
2023-01-12T04:58:15.009Z,24.50
2023-01-12T05:00:44.627Z,14.63
2023-01-12T05:03:16.410Z,15.93
2023-01-12T05:05:45.903Z,14.23
2023-01-12T05:08:35.223Z,24.25
2023-01-12T05:11:04.730Z,19.50
2023-01-12T05:13:34.154Z,23.62
2023-01-12T05:16:12.713Z,26.60
2023-01-12T05:18:45.298Z,22.58
2023-01-12T05:21:18.069Z,36.75
2023-01-12T05:23:47.562Z,19.60
2023-01-12T05:26:16.998Z,21.95
2023-01-12T05:28:51.445Z,16.27
2023-01-12T05:31:21.713Z,18.32
2023-01-12T05:33:53.477Z,21.50
2023-01-12T05:36:24.411Z,20.97
2023-01-12T05:38:54.018Z,16.27
2023-01-12T05:41:23.459Z,23.07
2023-01-12T05:43:54.760Z,23.22
2023-01-12T05:46:44.850Z,16.65
2023-01-12T05:49:14.297Z,22.98
2023-01-12T05:51:43.733Z,23.45
2023-01-12T05:54:13.390Z,27.70
2023-01-12T05:56:44.659Z,18.02
2023-01-12T05:59:14.437Z,18.25
2023-01-12T06:01:44.654Z,22.65
2023-01-12T06:04:14.155Z,15.13
2023-01-12T06:06:43.791Z,18.10
2023-01-12T06:09:13.439Z,25.88
2023-01-12T06:12:00.592Z,18.52
2023-01-12T06:14:30.083Z,25.12
2023-01-12T06:16:59.625Z,16.50
2023-01-12T06:19:29.331Z,19.57
2023-01-12T06:21:59.748Z,16.60
2023-01-12T06:24:29.949Z,19.40
2023-01-12T06:26:59.463Z,17.12
2023-01-12T06:29:28.886Z,18.62
2023-01-12T06:31:58.368Z,20.65
2023-01-12T06:34:27.797Z,14.95
2023-01-12T06:36:57.235Z,24.15
2023-01-12T06:39:27.197Z,16.27
2023-01-12T06:42:14.352Z,13.15
2023-01-12T06:44:43.903Z,15.53
2023-01-12T06:47:13.419Z,15.40
2023-01-12T06:49:42.914Z,19.45
2023-01-12T06:52:12.551Z,21.02
2023-01-12T06:54:42.001Z,20.80
2023-01-12T06:57:11.432Z,23.25
2023-01-12T06:59:42.258Z,12.68
2023-01-12T07:02:15.169Z,11.60
2023-01-12T07:07:13.584Z,18.50
2023-01-12T07:09:43.005Z,20.10
2023-01-12T07:12:12.531Z,23.38
2023-01-12T07:14:41.971Z,19.48
2023-01-12T07:17:12.727Z,18.83
2023-01-12T07:19:43.822Z,18.73
2023-01-12T07:22:13.275Z,17.67
2023-01-12T07:24:42.735Z,16.67
2023-01-12T07:27:12.314Z,17.65
2023-01-12T07:29:41.733Z,20.17
2023-01-12T07:32:11.187Z,18.43
2023-01-12T07:34:40.794Z,20.50
2023-01-12T07:37:10.233Z,20.43
2023-01-12T07:39:39.668Z,20.97
2023-01-12T07:42:25.487Z,17.50
2023-01-12T07:44:54.999Z,17.82
2023-01-12T07:47:25.238Z,16.90
2023-01-12T07:49:54.746Z,14.38
2023-01-12T07:52:24.191Z,18.02
2023-01-12T07:54:53.616Z,22.77
2023-01-12T07:57:23.534Z,15.58
2023-01-12T07:59:52.967Z,15.65
2023-01-12T08:02:23.969Z,19.55
2023-01-12T08:04:54.812Z,16.35
2023-01-12T08:07:24.411Z,16.17
2023-01-12T08:09:54.136Z,19.75
2023-01-12T08:12:23.583Z,18.45
2023-01-12T08:14:53.006Z,25.45
2023-01-12T08:17:24.768Z,16.82
2023-01-12T08:19:57.254Z,17.12
2023-01-12T08:22:30.442Z,21.90
2023-01-12T08:25:08.825Z,17.55
2023-01-12T08:27:41.346Z,18.45
2023-01-12T08:30:13.038Z,19.23
2023-01-12T08:32:43.074Z,25.17
2023-01-12T08:35:15.212Z,21.20
2023-01-12T08:37:44.753Z,26.10
2023-01-12T08:40:15.837Z,24.00
2023-01-12T08:42:45.539Z,29.20
2023-01-12T08:45:14.974Z,29.92
2023-01-12T08:47:45.544Z,35.10
2023-01-12T08:50:15.292Z,28.75
2023-01-12T08:52:44.791Z,30.62
2023-01-12T08:55:14.898Z,27.70
2023-01-12T08:57:44.363Z,31.87
2023-01-12T09:00:15.241Z,25.55
2023-01-12T09:02:44.837Z,25.25
2023-01-12T09:05:16.621Z,23.60
2023-01-12T09:07:46.059Z,22.30
2023-01-12T09:10:16.123Z,23.35
2023-01-12T09:12:45.557Z,17.50
2023-01-12T09:15:15.000Z,24.35
2023-01-12T09:17:44.869Z,22.62
2023-01-12T09:20:15.014Z,16.23
2023-01-12T09:22:44.771Z,24.20
2023-01-12T09:25:14.220Z,13.13
2023-01-12T09:27:43.713Z,14.63
2023-01-12T09:30:13.727Z,20.80
2023-01-12T09:32:43.226Z,13.50
2023-01-12T09:35:12.732Z,17.60
2023-01-12T09:37:43.777Z,19.05
2023-01-12T09:40:16.254Z,21.23
2023-01-12T09:43:11.627Z,17.73
2023-01-12T09:46:01.038Z,15.65
2023-01-12T09:48:31.849Z,20.27
2023-01-12T09:51:04.357Z,13.98
2023-01-12T09:53:53.539Z,19.37
2023-01-12T09:56:28.708Z,20.62
2023-01-12T09:59:19.027Z,17.00
2023-01-12T10:01:49.103Z,15.50
2023-01-12T10:04:20.272Z,16.80
2023-01-12T10:06:50.158Z,18.85
2023-01-12T10:09:22.168Z,17.15
2023-01-12T10:12:14.304Z,13.43
2023-01-12T10:14:47.202Z,24.85
2023-01-12T10:17:38.668Z,13.57
2023-01-12T10:20:24.302Z,16.20
2023-01-12T10:22:56.890Z,13.78
2023-01-12T10:25:53.921Z,13.15
2023-01-12T10:28:30.211Z,20.05
2023-01-12T10:31:01.130Z,13.80
2023-01-12T10:33:34.480Z,16.35
2023-01-12T10:36:10.617Z,13.25
2023-01-12T10:38:42.983Z,12.37
2023-01-12T10:41:17.654Z,13.93
2023-01-12T10:44:05.377Z,10.68
2023-01-12T10:46:36.135Z,17.92
2023-01-12T10:49:18.237Z,11.95
2023-01-12T10:51:59.938Z,11.53
2023-01-12T10:54:35.098Z,20.85
2023-01-12T10:57:11.252Z,14.78
2023-01-12T10:59:42.549Z,10.70
2023-01-12T11:02:16.869Z,15.70
2023-01-12T11:04:54.474Z,14.40
2023-01-12T11:07:29.712Z,12.05
2023-01-12T11:10:19.452Z,11.12
2023-01-12T11:12:55.541Z,13.43
2023-01-12T11:15:25.119Z,10.55
2023-01-12T11:18:24.053Z,10.53
2023-01-12T11:20:59.557Z,13.10
2023-01-12T11:23:32.140Z,12.68
2023-01-12T11:26:03.818Z,10.48
2023-01-12T11:28:40.225Z,13.53
2023-01-12T11:31:12.755Z,12.37
2023-01-12T11:33:52.082Z,13.90
2023-01-12T11:36:27.261Z,10.13
2023-01-12T11:39:02.265Z,11.18
2023-01-12T11:41:47.963Z,10.88
2023-01-12T11:44:26.708Z,11.38
2023-01-12T11:47:02.187Z,11.43
2023-01-12T11:49:34.790Z,8.80
2023-01-12T11:52:04.298Z,9.58
2023-01-12T11:54:33.769Z,12.20
2023-01-12T11:57:27.524Z,6.08
2023-01-12T12:00:03.804Z,10.45
2023-01-12T12:02:41.518Z,12.63
2023-01-12T12:05:32.811Z,12.70
2023-01-12T12:08:05.878Z,9.95
2023-01-12T12:13:31.611Z,14.47
2023-01-12T12:16:07.086Z,7.20
2023-01-12T12:18:48.638Z,9.85
2023-01-12T12:21:50.333Z,7.15
2023-01-12T12:24:51.541Z,9.10
2023-01-12T12:27:33.276Z,15.65
2023-01-12T12:30:28.676Z,8.98
2023-01-12T12:33:20.883Z,10.25
2023-01-12T12:36:19.678Z,13.47
2023-01-12T12:39:17.747Z,11.75
2023-01-12T12:42:26.429Z,16.00
2023-01-12T12:45:16.778Z,12.55
2023-01-12T12:48:24.669Z,10.95
2023-01-12T12:51:00.155Z,12.47
2023-01-12T12:53:42.109Z,14.63
2023-01-12T12:56:14.558Z,12.87
2023-01-12T12:58:47.486Z,13.20
2023-01-12T13:01:27.520Z,18.42
2023-01-12T13:04:05.156Z,11.30
2023-01-12T13:06:50.783Z,11.88
2023-01-12T13:09:23.347Z,10.43
2023-01-12T13:12:02.045Z,14.25
2023-01-12T13:14:36.919Z,12.68
2023-01-12T13:17:24.738Z,11.83
2023-01-12T13:20:24.054Z,12.03
2023-01-12T13:22:46.556Z,11.45
2023-01-12T13:25:23.881Z,13.65
2023-01-12T13:28:01.023Z,11.18
2023-01-12T13:30:35.405Z,12.70
2023-01-12T13:33:29.098Z,11.88
2023-01-12T13:36:01.291Z,14.73
2023-01-12T13:38:45.800Z,10.30
2023-01-12T13:41:51.693Z,15.43
2023-01-12T13:44:27.111Z,15.43
2023-01-12T13:47:05.799Z,11.33
2023-01-12T13:49:38.131Z,8.53
2023-01-12T13:52:10.969Z,10.13
2023-01-12T13:54:43.962Z,12.85
2023-01-12T13:57:22.244Z,13.75
2023-01-12T14:00:07.845Z,8.48
2023-01-12T14:02:44.667Z,10.32
2023-01-12T14:05:26.311Z,12.40
2023-01-12T14:08:17.827Z,13.25
2023-01-12T14:11:04.831Z,14.15
2023-01-12T14:13:52.545Z,12.15
2023-01-12T14:16:41.736Z,13.15
2023-01-12T14:19:29.384Z,15.57
2023-01-12T14:22:02.580Z,16.87
2023-01-12T14:24:32.675Z,15.60
2023-01-12T14:27:05.211Z,14.10
2023-01-12T14:29:36.190Z,10.60
2023-01-12T14:32:06.936Z,11.33
2023-01-12T14:34:38.233Z,11.38
2023-01-12T14:37:11.873Z,14.98
2023-01-12T14:39:42.911Z,12.78
2023-01-12T14:42:38.334Z,9.38
2023-01-12T14:45:40.470Z,8.85
2023-01-12T14:48:31.634Z,18.45
2023-01-12T14:51:12.950Z,10.20
2023-01-12T14:53:45.983Z,12.35
2023-01-12T14:56:21.260Z,12.23
2023-01-12T14:58:51.346Z,16.02
2023-01-12T15:01:38.921Z,14.50
2023-01-12T15:04:18.504Z,9.60
2023-01-12T15:06:48.632Z,17.15
2023-01-12T15:09:30.617Z,9.58
2023-01-12T15:12:00.125Z,10.98
2023-01-12T15:14:30.942Z,9.65
2023-01-12T15:17:19.472Z,9.23
2023-01-12T15:20:08.444Z,7.75
2023-01-12T15:22:55.997Z,14.95
2023-01-12T15:25:38.215Z,10.10
2023-01-12T15:28:08.567Z,13.30
2023-01-12T15:30:40.727Z,12.28
2023-01-12T15:33:10.823Z,12.70
2023-01-12T15:35:43.746Z,14.55
2023-01-12T15:38:14.707Z,11.25
2023-01-12T15:40:46.684Z,14.38
2023-01-12T15:43:18.045Z,10.05
2023-01-12T15:45:49.154Z,12.20
2023-01-12T15:48:18.618Z,18.02
2023-01-12T15:50:48.857Z,10.70
2023-01-12T15:53:21.207Z,13.05
2023-01-12T15:58:19.906Z,10.93
2023-01-12T16:00:49.566Z,10.30
2023-01-12T16:03:48.209Z,12.90
2023-01-12T16:05:50.581Z,17.87
2023-01-12T16:08:19.997Z,20.37
2023-01-12T16:10:57.026Z,18.48
2023-01-12T16:13:26.443Z,19.57
2023-01-12T16:15:55.881Z,14.43
2023-01-12T16:18:26.647Z,21.20
2023-01-12T16:21:03.255Z,21.77
2023-01-12T16:23:33.649Z,34.08
2023-01-12T16:26:03.258Z,62.15
2023-01-12T16:28:32.698Z,43.35
2023-01-12T16:31:08.054Z,52.38
2023-01-12T16:33:38.224Z,41.68
2023-01-12T16:36:09.612Z,34.75
2023-01-12T16:38:39.471Z,40.67
2023-01-12T16:41:16.088Z,31.77
2023-01-12T16:43:45.991Z,32.08
2023-01-12T16:46:17.231Z,29.77
2023-01-12T16:48:46.906Z,28.57
2023-01-12T16:51:19.505Z,27.48
2023-01-12T16:53:48.921Z,37.17
2023-01-12T16:56:18.628Z,32.17
2023-01-12T16:58:52.712Z,27.82
2023-01-12T17:01:27.078Z,31.40
2023-01-12T17:03:58.446Z,30.72
2023-01-12T17:06:30.717Z,28.45
2023-01-12T17:09:04.253Z,30.05
2023-01-12T17:11:36.010Z,35.33
2023-01-12T17:14:07.255Z,35.35
2023-01-12T17:16:36.707Z,37.25
2023-01-12T17:19:06.465Z,35.78
2023-01-12T17:21:36.243Z,31.73
2023-01-12T17:24:05.963Z,37.30
2023-01-12T17:26:37.187Z,29.52
2023-01-12T17:29:08.308Z,34.03
2023-01-12T17:31:40.046Z,30.62
2023-01-12T17:34:13.146Z,33.78
2023-01-12T17:39:12.192Z,39.15
2023-01-12T17:42:00.822Z,35.78
2023-01-12T17:44:31.097Z,37.65
2023-01-12T17:47:00.709Z,50.70
2023-01-12T17:49:30.417Z,36.98
2023-01-12T17:51:59.841Z,42.60
2023-01-12T17:54:29.995Z,51.65
2023-01-12T17:56:59.583Z,60.75
2023-01-12T17:59:29.296Z,63.25
2023-01-12T18:01:59.490Z,65.00
2023-01-12T18:04:28.931Z,52.35
2023-01-12T18:06:58.489Z,56.50
2023-01-12T18:09:28.046Z,51.80
2023-01-12T18:11:57.966Z,47.50
2023-01-12T18:14:27.532Z,47.83
2023-01-12T18:16:57.875Z,47.07
2023-01-12T18:19:28.309Z,55.15
2023-01-12T18:21:57.742Z,40.92
2023-01-12T18:24:27.167Z,41.37
2023-01-12T18:26:56.849Z,38.67
2023-01-12T18:29:26.292Z,36.88
2023-01-12T18:31:55.924Z,38.03
2023-01-12T18:34:25.946Z,41.28
2023-01-12T18:36:55.451Z,49.27
2023-01-12T18:39:24.894Z,60.15
2023-01-12T18:42:12.911Z,45.65
2023-01-12T18:44:42.325Z,59.65
2023-01-12T18:47:34.849Z,41.73
2023-01-12T18:50:22.491Z,47.15
2023-01-12T18:53:10.344Z,63.65
2023-01-12T18:55:43.324Z,37.08
2023-01-12T18:58:12.990Z,35.73
2023-01-12T19:00:42.670Z,40.58
2023-01-12T19:03:13.262Z,47.05
2023-01-12T19:05:44.428Z,46.02
2023-01-12T19:08:30.436Z,54.00
2023-01-12T19:11:08.459Z,65.17
2023-01-12T19:13:56.810Z,60.25
2023-01-12T19:16:45.963Z,66.33
2023-01-12T19:19:15.688Z,75.22
2023-01-12T19:22:04.856Z,78.70
2023-01-12T19:24:52.300Z,66.10
2023-01-12T19:27:39.951Z,70.52
2023-01-12T19:30:11.697Z,66.17
2023-01-12T19:32:41.275Z,69.10
2023-01-12T19:35:11.901Z,67.37
2023-01-12T19:37:43.403Z,72.27
2023-01-12T19:40:15.126Z,81.55
2023-01-12T19:43:03.097Z,85.10
2023-01-12T19:45:32.670Z,90.07
2023-01-12T19:48:03.831Z,110.88
2023-01-12T19:50:33.275Z,97.60
2023-01-12T19:53:03.966Z,98.17
2023-01-12T19:55:34.894Z,95.47
2023-01-12T19:58:06.166Z,86.35
2023-01-12T20:00:38.073Z,94.45
2023-01-12T20:03:07.981Z,93.23
2023-01-12T20:05:41.275Z,86.95
2023-01-12T20:08:11.864Z,87.02
2023-01-12T20:10:41.746Z,86.50
2023-01-12T20:13:14.104Z,85.60
2023-01-12T20:15:45.052Z,85.57
2023-01-12T20:18:15.031Z,84.73
2023-01-12T20:20:44.752Z,82.95
2023-01-12T20:23:19.729Z,86.80
2023-01-12T20:25:49.151Z,82.97
2023-01-12T20:28:20.176Z,74.58
2023-01-12T20:30:49.840Z,81.90
2023-01-12T20:33:19.273Z,91.80
2023-01-12T20:35:50.528Z,102.10
2023-01-12T20:38:20.199Z,88.10
2023-01-12T20:40:50.242Z,95.80
2023-01-12T20:43:19.951Z,96.70
2023-01-12T20:45:50.310Z,106.95
2023-01-12T20:48:20.325Z,113.10
2023-01-12T20:50:49.756Z,100.53
2023-01-12T20:53:19.735Z,104.50
2023-01-12T20:55:52.495Z,98.35
2023-01-12T20:58:22.318Z,107.12
2023-01-12T21:00:53.232Z,111.35
2023-01-12T21:03:23.849Z,106.12
2023-01-12T21:05:53.375Z,115.88
2023-01-12T21:08:23.315Z,109.00
2023-01-12T21:10:55.156Z,111.08
2023-01-12T21:13:24.626Z,108.77
2023-01-12T21:16:00.563Z,105.47
2023-01-12T21:18:31.980Z,89.67
2023-01-12T21:21:01.641Z,98.00
2023-01-12T21:23:31.403Z,96.67
2023-01-12T21:26:01.042Z,97.08
2023-01-12T21:28:30.787Z,98.55
2023-01-12T21:31:04.385Z,91.10
2023-01-12T21:33:34.089Z,95.50
2023-01-12T21:36:04.371Z,101.47
2023-01-12T21:38:34.375Z,98.15
2023-01-12T21:41:06.327Z,88.82
2023-01-12T21:43:36.153Z,115.40
2023-01-12T21:46:09.062Z,112.47
2023-01-12T21:48:44.987Z,97.53
2023-01-12T21:51:19.931Z,98.75
2023-01-12T21:53:49.046Z,105.00
2023-01-12T21:56:18.559Z,100.85
2023-01-12T21:58:48.878Z,105.50
2023-01-12T22:01:18.542Z,108.53
2023-01-12T22:03:48.719Z,97.47
2023-01-12T22:06:18.561Z,95.05
2023-01-12T22:08:48.080Z,108.00
2023-01-12T22:11:19.296Z,102.67
2023-01-12T22:13:48.735Z,105.78
2023-01-12T22:16:19.627Z,106.95
2023-01-12T22:18:51.525Z,99.80
2023-01-12T22:21:23.596Z,104.30
2023-01-12T22:23:53.032Z,104.20
2023-01-12T22:26:22.695Z,106.43
2023-01-12T22:28:52.101Z,107.58
2023-01-12T22:31:24.612Z,108.00
2023-01-12T22:34:01.158Z,113.77
2023-01-12T22:36:34.891Z,100.58
2023-01-12T22:39:04.112Z,104.03
2023-01-12T22:41:33.592Z,105.40
2023-01-12T22:44:03.011Z,116.97
2023-01-12T22:46:32.632Z,111.35
2023-01-12T22:49:02.563Z,127.30
2023-01-12T22:51:31.994Z,123.72
2023-01-12T22:54:01.489Z,109.40
2023-01-12T22:56:30.974Z,120.87
2023-01-12T23:01:48.465Z,118.55
2023-01-12T23:04:17.971Z,112.90
2023-01-12T23:06:47.781Z,115.77
2023-01-12T23:09:17.567Z,118.00
2023-01-12T23:11:47.085Z,117.03
2023-01-12T23:14:16.705Z,103.00
2023-01-12T23:16:46.611Z,88.33
2023-01-12T23:19:18.497Z,81.90
2023-01-12T23:21:49.535Z,90.38
2023-01-12T23:24:19.041Z,83.15
2023-01-12T23:26:48.549Z,78.17
2023-01-12T23:29:18.171Z,72.80
2023-01-12T23:31:48.726Z,69.50
2023-01-12T23:34:18.832Z,63.52
2023-01-12T23:36:48.443Z,62.03
2023-01-12T23:39:18.020Z,63.60
2023-01-12T23:41:47.529Z,58.15
2023-01-12T23:44:17.934Z,58.68
2023-01-12T23:46:47.433Z,63.30
2023-01-12T23:49:17.983Z,56.95
2023-01-12T23:51:47.714Z,57.98
2023-01-12T23:54:19.188Z,52.73
